sensor_id;sensor_type;location;lat;lon;timestamp;P1;durP1;ratioP1;P2;durP2;ratioP2
68310;SDS011;55157;51.036;17.058;2023-07-02T00:01:35;14.00;;;7.40;;
68310;SDS011;55157;51.036;17.058;2023-07-02T00:04:00;20.77;;;7.28;;
68310;SDS011;55157;51.036;17.058;2023-07-02T00:06:26;21.25;;;7.88;;
68310;SDS011;55157;51.036;17.058;2023-07-02T00:08:51;19.77;;;8.60;;
68310;SDS011;55157;51.036;17.058;2023-07-02T00:11:16;16.10;;;7.45;;
68310;SDS011;55157;51.036;17.058;2023-07-02T00:13:43;15.25;;;7.68;;
68310;SDS011;55157;51.036;17.058;2023-07-02T00:16:08;14.27;;;8.00;;
68310;SDS011;55157;51.036;17.058;2023-07-02T00:18:33;14.43;;;8.23;;
68310;SDS011;55157;51.036;17.058;2023-07-02T00:20:59;16.25;;;7.78;;
68310;SDS011;55157;51.036;17.058;2023-07-02T00:23:24;12.35;;;7.75;;
68310;SDS011;55157;51.036;17.058;2023-07-02T00:25:49;20.70;;;6.90;;
68310;SDS011;55157;51.036;17.058;2023-07-02T00:28:14;16.60;;;7.35;;
68310;SDS011;55157;51.036;17.058;2023-07-02T00:30:41;12.98;;;7.15;;
68310;SDS011;55157;51.036;17.058;2023-07-02T00:33:06;10.38;;;6.88;;
68310;SDS011;55157;51.036;17.058;2023-07-02T00:35:31;13.57;;;6.03;;
68310;SDS011;55157;51.036;17.058;2023-07-02T00:37:57;11.90;;;6.18;;
68310;SDS011;55157;51.036;17.058;2023-07-02T00:40:22;9.88;;;5.35;;
68310;SDS011;55157;51.036;17.058;2023-07-02T00:42:47;8.55;;;5.35;;
68310;SDS011;55157;51.036;17.058;2023-07-02T00:45:12;9.13;;;4.85;;
68310;SDS011;55157;51.036;17.058;2023-07-02T00:47:39;6.38;;;4.28;;
68310;SDS011;55157;51.036;17.058;2023-07-02T00:50:05;8.60;;;4.60;;
68310;SDS011;55157;51.036;17.058;2023-07-02T00:52:30;14.13;;;4.35;;
68310;SDS011;55157;51.036;17.058;2023-07-02T00:54:55;6.88;;;3.17;;
68310;SDS011;55157;51.036;17.058;2023-07-02T00:57:21;5.95;;;3.45;;
68310;SDS011;55157;51.036;17.058;2023-07-02T00:59:46;7.82;;;3.25;;
68310;SDS011;55157;51.036;17.058;2023-07-02T01:02:11;10.77;;;3.17;;
68310;SDS011;55157;51.036;17.058;2023-07-02T01:04:38;16.70;;;3.72;;
68310;SDS011;55157;51.036;17.058;2023-07-02T01:07:03;7.88;;;2.58;;
68310;SDS011;55157;51.036;17.058;2023-07-02T01:09:29;5.07;;;2.78;;
68310;SDS011;55157;51.036;17.058;2023-07-02T01:11:54;4.25;;;2.65;;
68310;SDS011;55157;51.036;17.058;2023-07-02T01:14:21;3.35;;;2.50;;
68310;SDS011;55157;51.036;17.058;2023-07-02T01:16:47;3.97;;;2.80;;
68310;SDS011;55157;51.036;17.058;2023-07-02T01:19:13;4.30;;;2.47;;
68310;SDS011;55157;51.036;17.058;2023-07-02T01:21:42;4.38;;;2.38;;
68310;SDS011;55157;51.036;17.058;2023-07-02T01:24:07;4.15;;;2.70;;
68310;SDS011;55157;51.036;17.058;2023-07-02T01:26:32;7.18;;;2.50;;
68310;SDS011;55157;51.036;17.058;2023-07-02T01:28:58;2.97;;;2.15;;
68310;SDS011;55157;51.036;17.058;2023-07-02T01:31:23;6.78;;;2.83;;
68310;SDS011;55157;51.036;17.058;2023-07-02T01:33:48;3.65;;;2.20;;
68310;SDS011;55157;51.036;17.058;2023-07-02T01:36:14;2.88;;;1.75;;
68310;SDS011;55157;51.036;17.058;2023-07-02T01:38:40;3.08;;;2.05;;
68310;SDS011;55157;51.036;17.058;2023-07-02T01:41:05;4.47;;;2.00;;
68310;SDS011;55157;51.036;17.058;2023-07-02T01:43:31;5.80;;;1.70;;
68310;SDS011;55157;51.036;17.058;2023-07-02T01:45:56;3.10;;;1.55;;
68310;SDS011;55157;51.036;17.058;2023-07-02T01:48:21;2.42;;;1.60;;
68310;SDS011;55157;51.036;17.058;2023-07-02T01:50:47;3.20;;;1.70;;
68310;SDS011;55157;51.036;17.058;2023-07-02T01:53:12;3.33;;;1.48;;
68310;SDS011;55157;51.036;17.058;2023-07-02T01:55:39;5.05;;;1.70;;
68310;SDS011;55157;51.036;17.058;2023-07-02T01:58:04;6.13;;;1.30;;
68310;SDS011;55157;51.036;17.058;2023-07-02T02:00:30;3.58;;;1.48;;
68310;SDS011;55157;51.036;17.058;2023-07-02T02:02:55;2.03;;;1.42;;
68310;SDS011;55157;51.036;17.058;2023-07-02T02:05:20;2.50;;;1.30;;
68310;SDS011;55157;51.036;17.058;2023-07-02T02:07:46;5.60;;;1.38;;
68310;SDS011;55157;51.036;17.058;2023-07-02T02:10:11;3.33;;;1.33;;
68310;SDS011;55157;51.036;17.058;2023-07-02T02:12:38;1.70;;;1.20;;
68310;SDS011;55157;51.036;17.058;2023-07-02T02:15:03;2.70;;;1.33;;
68310;SDS011;55157;51.036;17.058;2023-07-02T02:17:28;2.85;;;1.83;;
68310;SDS011;55157;51.036;17.058;2023-07-02T02:19:54;3.80;;;1.40;;
68310;SDS011;55157;51.036;17.058;2023-07-02T02:22:19;1.98;;;1.23;;
68310;SDS011;55157;51.036;17.058;2023-07-02T02:24:44;2.05;;;1.25;;
68310;SDS011;55157;51.036;17.058;2023-07-02T02:27:09;4.95;;;1.63;;
68310;SDS011;55157;51.036;17.058;2023-07-02T02:29:36;12.98;;;1.45;;
68310;SDS011;55157;51.036;17.058;2023-07-02T02:32:01;1.50;;;1.15;;
68310;SDS011;55157;51.036;17.058;2023-07-02T02:34:27;6.10;;;1.48;;
68310;SDS011;55157;51.036;17.058;2023-07-02T02:36:52;4.07;;;1.30;;
68310;SDS011;55157;51.036;17.058;2023-07-02T02:39:17;14.95;;;1.63;;
68310;SDS011;55157;51.036;17.058;2023-07-02T02:41:42;4.88;;;1.30;;
68310;SDS011;55157;51.036;17.058;2023-07-02T02:44:08;2.63;;;0.98;;
68310;SDS011;55157;51.036;17.058;2023-07-02T02:46:34;5.10;;;1.20;;
68310;SDS011;55157;51.036;17.058;2023-07-02T02:49:00;1.70;;;1.08;;
68310;SDS011;55157;51.036;17.058;2023-07-02T02:51:25;4.78;;;1.10;;
68310;SDS011;55157;51.036;17.058;2023-07-02T02:53:50;3.08;;;1.05;;
68310;SDS011;55157;51.036;17.058;2023-07-02T02:56:16;2.63;;;0.90;;
68310;SDS011;55157;51.036;17.058;2023-07-02T02:58:41;3.95;;;0.90;;
68310;SDS011;55157;51.036;17.058;2023-07-02T03:01:06;4.22;;;1.20;;
68310;SDS011;55157;51.036;17.058;2023-07-02T03:03:33;3.20;;;1.02;;
68310;SDS011;55157;51.036;17.058;2023-07-02T03:05:58;3.90;;;1.30;;
68310;SDS011;55157;51.036;17.058;2023-07-02T03:08:23;7.20;;;1.52;;
68310;SDS011;55157;51.036;17.058;2023-07-02T03:10:48;2.13;;;1.38;;
68310;SDS011;55157;51.036;17.058;2023-07-02T03:13:14;4.30;;;1.17;;
68310;SDS011;55157;51.036;17.058;2023-07-02T03:15:39;4.38;;;1.05;;
68310;SDS011;55157;51.036;17.058;2023-07-02T03:18:04;1.52;;;0.93;;
68310;SDS011;55157;51.036;17.058;2023-07-02T03:20:31;1.10;;;0.95;;
68310;SDS011;55157;51.036;17.058;2023-07-02T03:22:56;8.35;;;1.20;;
68310;SDS011;55157;51.036;17.058;2023-07-02T03:25:21;2.13;;;1.10;;
68310;SDS011;55157;51.036;17.058;2023-07-02T03:27:47;1.65;;;1.05;;
68310;SDS011;55157;51.036;17.058;2023-07-02T03:30:12;2.08;;;1.10;;
68310;SDS011;55157;51.036;17.058;2023-07-02T03:32:37;1.92;;;1.25;;
68310;SDS011;55157;51.036;17.058;2023-07-02T03:35:02;4.68;;;1.15;;
68310;SDS011;55157;51.036;17.058;2023-07-02T03:37:29;1.42;;;1.10;;
68310;SDS011;55157;51.036;17.058;2023-07-02T03:39:54;3.70;;;1.05;;
68310;SDS011;55157;51.036;17.058;2023-07-02T03:42:20;3.15;;;1.30;;
68310;SDS011;55157;51.036;17.058;2023-07-02T03:44:45;3.83;;;1.13;;
68310;SDS011;55157;51.036;17.058;2023-07-02T03:47:10;5.75;;;1.55;;
68310;SDS011;55157;51.036;17.058;2023-07-02T03:49:35;3.85;;;1.13;;
68310;SDS011;55157;51.036;17.058;2023-07-02T03:52:01;1.50;;;1.10;;
68310;SDS011;55157;51.036;17.058;2023-07-02T03:54:27;2.53;;;1.67;;
68310;SDS011;55157;51.036;17.058;2023-07-02T03:56:53;4.35;;;1.00;;
68310;SDS011;55157;51.036;17.058;2023-07-02T03:59:18;3.08;;;1.45;;
68310;SDS011;55157;51.036;17.058;2023-07-02T04:01:43;2.38;;;1.35;;
68310;SDS011;55157;51.036;17.058;2023-07-02T04:04:09;2.38;;;1.23;;
68310;SDS011;55157;51.036;17.058;2023-07-02T04:06:34;1.40;;;0.93;;
68310;SDS011;55157;51.036;17.058;2023-07-02T04:08:59;2.25;;;1.20;;
68310;SDS011;55157;51.036;17.058;2023-07-02T04:11:26;2.72;;;1.17;;
68310;SDS011;55157;51.036;17.058;2023-07-02T04:13:51;2.20;;;1.17;;
68310;SDS011;55157;51.036;17.058;2023-07-02T04:16:16;2.20;;;1.35;;
68310;SDS011;55157;51.036;17.058;2023-07-02T04:18:42;5.90;;;1.70;;
68310;SDS011;55157;51.036;17.058;2023-07-02T04:21:07;4.07;;;1.20;;
68310;SDS011;55157;51.036;17.058;2023-07-02T04:23:32;4.40;;;1.05;;
68310;SDS011;55157;51.036;17.058;2023-07-02T04:25:57;3.00;;;1.20;;
68310;SDS011;55157;51.036;17.058;2023-07-02T04:28:24;1.67;;;1.38;;
68310;SDS011;55157;51.036;17.058;2023-07-02T04:30:50;1.65;;;1.00;;
68310;SDS011;55157;51.036;17.058;2023-07-02T04:33:15;1.50;;;1.20;;
68310;SDS011;55157;51.036;17.058;2023-07-02T04:35:40;2.63;;;1.27;;
68310;SDS011;55157;51.036;17.058;2023-07-02T04:38:06;2.30;;;1.08;;
68310;SDS011;55157;51.036;17.058;2023-07-02T04:40:31;2.35;;;1.30;;
68310;SDS011;55157;51.036;17.058;2023-07-02T04:42:56;5.03;;;1.55;;
68310;SDS011;55157;51.036;17.058;2023-07-02T04:45:23;3.33;;;1.40;;
68310;SDS011;55157;51.036;17.058;2023-07-02T04:47:49;3.60;;;1.20;;
68310;SDS011;55157;51.036;17.058;2023-07-02T04:50:15;2.50;;;1.05;;
68310;SDS011;55157;51.036;17.058;2023-07-02T04:52:41;1.95;;;1.05;;
68310;SDS011;55157;51.036;17.058;2023-07-02T04:55:06;3.58;;;1.40;;
68310;SDS011;55157;51.036;17.058;2023-07-02T04:57:32;1.25;;;0.98;;
68310;SDS011;55157;51.036;17.058;2023-07-02T04:59:57;2.75;;;1.15;;
68310;SDS011;55157;51.036;17.058;2023-07-02T05:02:24;2.95;;;1.30;;
68310;SDS011;55157;51.036;17.058;2023-07-02T05:04:49;7.95;;;1.90;;
68310;SDS011;55157;51.036;17.058;2023-07-02T05:07:15;2.00;;;1.00;;
68310;SDS011;55157;51.036;17.058;2023-07-02T05:09:40;2.60;;;1.38;;
68310;SDS011;55157;51.036;17.058;2023-07-02T05:12:05;2.35;;;1.30;;
68310;SDS011;55157;51.036;17.058;2023-07-02T05:14:31;1.67;;;0.93;;
68310;SDS011;55157;51.036;17.058;2023-07-02T05:16:56;3.95;;;1.48;;
68310;SDS011;55157;51.036;17.058;2023-07-02T05:19:23;3.17;;;1.40;;
68310;SDS011;55157;51.036;17.058;2023-07-02T05:21:48;5.22;;;1.58;;
68310;SDS011;55157;51.036;17.058;2023-07-02T05:24:13;1.95;;;1.30;;
68310;SDS011;55157;51.036;17.058;2023-07-02T05:26:38;2.10;;;1.17;;
68310;SDS011;55157;51.036;17.058;2023-07-02T05:29:04;2.60;;;1.50;;
68310;SDS011;55157;51.036;17.058;2023-07-02T05:31:29;5.40;;;1.08;;
68310;SDS011;55157;51.036;17.058;2023-07-02T05:33:54;2.42;;;1.40;;
68310;SDS011;55157;51.036;17.058;2023-07-02T05:36:21;3.70;;;1.45;;
68310;SDS011;55157;51.036;17.058;2023-07-02T05:38:46;3.08;;;1.13;;
68310;SDS011;55157;51.036;17.058;2023-07-02T05:41:17;6.38;;;1.40;;
68310;SDS011;55157;51.036;17.058;2023-07-02T05:43:42;5.57;;;1.20;;
68310;SDS011;55157;51.036;17.058;2023-07-02T05:46:07;3.15;;;1.30;;
68310;SDS011;55157;51.036;17.058;2023-07-02T05:48:33;1.90;;;1.38;;
68310;SDS011;55157;51.036;17.058;2023-07-02T05:50:58;2.88;;;1.50;;
68310;SDS011;55157;51.036;17.058;2023-07-02T05:53:25;2.85;;;1.27;;
68310;SDS011;55157;51.036;17.058;2023-07-02T05:55:50;2.42;;;1.40;;
68310;SDS011;55157;51.036;17.058;2023-07-02T05:58:15;3.88;;;1.17;;
68310;SDS011;55157;51.036;17.058;2023-07-02T06:00:40;4.03;;;1.63;;
68310;SDS011;55157;51.036;17.058;2023-07-02T06:03:06;2.05;;;1.00;;
68310;SDS011;55157;51.036;17.058;2023-07-02T06:05:31;6.93;;;1.67;;
68310;SDS011;55157;51.036;17.058;2023-07-02T06:07:56;5.63;;;1.60;;
68310;SDS011;55157;51.036;17.058;2023-07-02T06:10:23;1.90;;;1.33;;
68310;SDS011;55157;51.036;17.058;2023-07-02T06:12:48;1.90;;;1.40;;
68310;SDS011;55157;51.036;17.058;2023-07-02T06:15:13;2.15;;;1.50;;
68310;SDS011;55157;51.036;17.058;2023-07-02T06:17:39;2.55;;;1.40;;
68310;SDS011;55157;51.036;17.058;2023-07-02T06:20:04;1.42;;;1.10;;
68310;SDS011;55157;51.036;17.058;2023-07-02T06:22:30;4.35;;;1.20;;
68310;SDS011;55157;51.036;17.058;2023-07-02T06:24:55;1.50;;;1.40;;
68310;SDS011;55157;51.036;17.058;2023-07-02T06:27:22;2.97;;;1.40;;
68310;SDS011;55157;51.036;17.058;2023-07-02T06:29:47;1.13;;;1.00;;
68310;SDS011;55157;51.036;17.058;2023-07-02T06:32:12;2.28;;;1.30;;
68310;SDS011;55157;51.036;17.058;2023-07-02T06:34:38;2.35;;;1.20;;
68310;SDS011;55157;51.036;17.058;2023-07-02T06:37:03;3.67;;;1.13;;
68310;SDS011;55157;51.036;17.058;2023-07-02T06:39:29;2.90;;;1.30;;
68310;SDS011;55157;51.036;17.058;2023-07-02T06:41:54;1.83;;;1.15;;
68310;SDS011;55157;51.036;17.058;2023-07-02T06:44:21;2.22;;;1.45;;
68310;SDS011;55157;51.036;17.058;2023-07-02T06:46:46;7.18;;;2.22;;
68310;SDS011;55157;51.036;17.058;2023-07-02T06:49:12;2.53;;;1.42;;
68310;SDS011;55157;51.036;17.058;2023-07-02T06:51:37;2.70;;;1.48;;
68310;SDS011;55157;51.036;17.058;2023-07-02T06:54:02;2.42;;;1.73;;
68310;SDS011;55157;51.036;17.058;2023-07-02T06:56:28;3.10;;;1.33;;
68310;SDS011;55157;51.036;17.058;2023-07-02T06:58:53;5.75;;;1.38;;
68310;SDS011;55157;51.036;17.058;2023-07-02T07:01:20;2.55;;;1.50;;
68310;SDS011;55157;51.036;17.058;2023-07-02T07:03:45;3.05;;;1.83;;
68310;SDS011;55157;51.036;17.058;2023-07-02T07:06:11;5.00;;;1.70;;
68310;SDS011;55157;51.036;17.058;2023-07-02T07:08:37;2.90;;;1.30;;
68310;SDS011;55157;51.036;17.058;2023-07-02T07:11:02;4.82;;;2.33;;
68310;SDS011;55157;51.036;17.058;2023-07-02T07:13:27;2.10;;;1.45;;
68310;SDS011;55157;51.036;17.058;2023-07-02T07:15:52;2.65;;;1.60;;
68310;SDS011;55157;51.036;17.058;2023-07-02T07:18:19;1.27;;;1.02;;
68310;SDS011;55157;51.036;17.058;2023-07-02T07:20:44;1.60;;;1.50;;
68310;SDS011;55157;51.036;17.058;2023-07-02T07:23:09;4.70;;;1.70;;
68310;SDS011;55157;51.036;17.058;2023-07-02T07:25:35;4.63;;;1.42;;
68310;SDS011;55157;51.036;17.058;2023-07-02T07:28:00;2.35;;;1.48;;
68310;SDS011;55157;51.036;17.058;2023-07-02T07:30:25;1.75;;;1.27;;
68310;SDS011;55157;51.036;17.058;2023-07-02T07:32:50;2.20;;;1.73;;
68310;SDS011;55157;51.036;17.058;2023-07-02T07:35:17;2.90;;;1.30;;
68310;SDS011;55157;51.036;17.058;2023-07-02T07:37:43;1.75;;;1.50;;
68310;SDS011;55157;51.036;17.058;2023-07-02T07:40:08;1.92;;;1.30;;
68310;SDS011;55157;51.036;17.058;2023-07-02T07:42:34;1.90;;;1.58;;
68310;SDS011;55157;51.036;17.058;2023-07-02T07:44:59;2.45;;;1.52;;
68310;SDS011;55157;51.036;17.058;2023-07-02T07:47:24;1.92;;;1.45;;
68310;SDS011;55157;51.036;17.058;2023-07-02T07:49:49;2.15;;;1.40;;
68310;SDS011;55157;51.036;17.058;2023-07-02T07:52:16;2.30;;;1.40;;
68310;SDS011;55157;51.036;17.058;2023-07-02T07:54:41;1.73;;;1.33;;
68310;SDS011;55157;51.036;17.058;2023-07-02T07:57:07;2.42;;;1.38;;
68310;SDS011;55157;51.036;17.058;2023-07-02T07:59:32;1.75;;;1.30;;
68310;SDS011;55157;51.036;17.058;2023-07-02T08:01:57;4.22;;;1.30;;
68310;SDS011;55157;51.036;17.058;2023-07-02T08:04:22;1.42;;;0.98;;
68310;SDS011;55157;51.036;17.058;2023-07-02T08:06:48;1.45;;;1.27;;
68310;SDS011;55157;51.036;17.058;2023-07-02T08:09:14;1.40;;;1.30;;
68310;SDS011;55157;51.036;17.058;2023-07-02T08:11:40;1.80;;;1.50;;
68310;SDS011;55157;51.036;17.058;2023-07-02T08:14:05;1.67;;;1.50;;
68310;SDS011;55157;51.036;17.058;2023-07-02T08:16:30;1.75;;;1.30;;
68310;SDS011;55157;51.036;17.058;2023-07-02T08:18:55;8.68;;;1.52;;
68310;SDS011;55157;51.036;17.058;2023-07-02T08:21:21;1.42;;;1.20;;
68310;SDS011;55157;51.036;17.058;2023-07-02T08:23:46;2.13;;;1.73;;
68310;SDS011;55157;51.036;17.058;2023-07-02T08:26:13;1.42;;;1.20;;
68310;SDS011;55157;51.036;17.058;2023-07-02T08:28:38;2.95;;;1.50;;
68310;SDS011;55157;51.036;17.058;2023-07-02T08:31:03;1.35;;;1.13;;
68310;SDS011;55157;51.036;17.058;2023-07-02T08:33:29;2.00;;;1.30;;
68310;SDS011;55157;51.036;17.058;2023-07-02T08:35:54;1.48;;;1.10;;
68310;SDS011;55157;51.036;17.058;2023-07-02T08:38:19;3.08;;;1.00;;
68310;SDS011;55157;51.036;17.058;2023-07-02T08:40:44;1.20;;;0.82;;
68310;SDS011;55157;51.036;17.058;2023-07-02T08:43:11;1.42;;;0.93;;
68310;SDS011;55157;51.036;17.058;2023-07-02T08:45:36;2.28;;;1.10;;
68310;SDS011;55157;51.036;17.058;2023-07-02T08:48:02;2.35;;;1.10;;
68310;SDS011;55157;51.036;17.058;2023-07-02T08:50:27;2.22;;;1.05;;
68310;SDS011;55157;51.036;17.058;2023-07-02T08:52:53;2.53;;;1.48;;
68310;SDS011;55157;51.036;17.058;2023-07-02T08:55:18;1.13;;;1.02;;
68310;SDS011;55157;51.036;17.058;2023-07-02T08:57:47;1.77;;;1.38;;
68310;SDS011;55157;51.036;17.058;2023-07-02T09:00:15;3.88;;;1.02;;
68310;SDS011;55157;51.036;17.058;2023-07-02T09:02:41;1.75;;;1.25;;
68310;SDS011;55157;51.036;17.058;2023-07-02T09:05:06;3.15;;;1.42;;
68310;SDS011;55157;51.036;17.058;2023-07-02T09:07:31;2.20;;;1.15;;
68310;SDS011;55157;51.036;17.058;2023-07-02T09:09:57;2.67;;;1.35;;
68310;SDS011;55157;51.036;17.058;2023-07-02T09:12:23;2.85;;;1.30;;
68310;SDS011;55157;51.036;17.058;2023-07-02T09:14:53;1.08;;;0.90;;
68310;SDS011;55157;51.036;17.058;2023-07-02T09:17:20;2.13;;;1.25;;
68310;SDS011;55157;51.036;17.058;2023-07-02T09:19:49;1.77;;;1.30;;
68310;SDS011;55157;51.036;17.058;2023-07-02T09:22:15;2.60;;;1.63;;
68310;SDS011;55157;51.036;17.058;2023-07-02T09:24:40;2.00;;;1.52;;
68310;SDS011;55157;51.036;17.058;2023-07-02T09:27:05;1.63;;;0.98;;
68310;SDS011;55157;51.036;17.058;2023-07-02T09:29:32;3.33;;;1.45;;
68310;SDS011;55157;51.036;17.058;2023-07-02T09:31:58;2.25;;;1.30;;
68310;SDS011;55157;51.036;17.058;2023-07-02T09:34:28;5.85;;;1.60;;
68310;SDS011;55157;51.036;17.058;2023-07-02T09:36:53;4.28;;;1.70;;
68310;SDS011;55157;51.036;17.058;2023-07-02T09:39:19;7.15;;;1.35;;
68310;SDS011;55157;51.036;17.058;2023-07-02T09:41:44;2.85;;;1.50;;
68310;SDS011;55157;51.036;17.058;2023-07-02T09:44:12;4.60;;;1.20;;
68310;SDS011;55157;51.036;17.058;2023-07-02T09:46:41;3.30;;;1.77;;
68310;SDS011;55157;51.036;17.058;2023-07-02T09:49:06;3.05;;;1.40;;
68310;SDS011;55157;51.036;17.058;2023-07-02T09:51:35;2.65;;;1.75;;
68310;SDS011;55157;51.036;17.058;2023-07-02T09:54:01;2.20;;;1.35;;
68310;SDS011;55157;51.036;17.058;2023-07-02T09:56:26;2.83;;;1.70;;
68310;SDS011;55157;51.036;17.058;2023-07-02T09:58:51;1.67;;;1.30;;
68310;SDS011;55157;51.036;17.058;2023-07-02T10:01:16;1.77;;;1.50;;
68310;SDS011;55157;51.036;17.058;2023-07-02T10:03:42;5.10;;;1.35;;
68310;SDS011;55157;51.036;17.058;2023-07-02T10:06:07;5.45;;;1.50;;
68310;SDS011;55157;51.036;17.058;2023-07-02T10:08:34;1.65;;;1.45;;
68310;SDS011;55157;51.036;17.058;2023-07-02T10:11:09;2.58;;;1.48;;
68310;SDS011;55157;51.036;17.058;2023-07-02T10:13:34;2.95;;;1.50;;
68310;SDS011;55157;51.036;17.058;2023-07-02T10:16:02;5.68;;;1.20;;
68310;SDS011;55157;51.036;17.058;2023-07-02T10:18:27;5.80;;;1.60;;
68310;SDS011;55157;51.036;17.058;2023-07-02T10:20:53;1.88;;;1.67;;
68310;SDS011;55157;51.036;17.058;2023-07-02T10:23:18;1.48;;;1.30;;
68310;SDS011;55157;51.036;17.058;2023-07-02T10:25:44;2.38;;;1.35;;
68310;SDS011;55157;51.036;17.058;2023-07-02T10:28:13;1.63;;;1.20;;
68310;SDS011;55157;51.036;17.058;2023-07-02T10:30:39;3.47;;;1.60;;
68310;SDS011;55157;51.036;17.058;2023-07-02T10:33:07;2.03;;;1.30;;
68310;SDS011;55157;51.036;17.058;2023-07-02T10:35:33;3.10;;;1.60;;
68310;SDS011;55157;51.036;17.058;2023-07-02T10:37:58;3.55;;;1.38;;
68310;SDS011;55157;51.036;17.058;2023-07-02T10:40:23;3.72;;;1.38;;
68310;SDS011;55157;51.036;17.058;2023-07-02T10:42:51;5.88;;;1.60;;
68310;SDS011;55157;51.036;17.058;2023-07-02T10:45:16;2.47;;;1.55;;
68310;SDS011;55157;51.036;17.058;2023-07-02T10:47:42;1.88;;;1.20;;
68310;SDS011;55157;51.036;17.058;2023-07-02T10:50:14;2.70;;;1.65;;
68310;SDS011;55157;51.036;17.058;2023-07-02T10:52:40;2.33;;;1.60;;
68310;SDS011;55157;51.036;17.058;2023-07-02T10:55:06;3.00;;;1.60;;
68310;SDS011;55157;51.036;17.058;2023-07-02T10:57:31;1.90;;;1.60;;
68310;SDS011;55157;51.036;17.058;2023-07-02T11:00:04;4.38;;;1.83;;
68310;SDS011;55157;51.036;17.058;2023-07-02T11:02:33;2.58;;;1.60;;
68310;SDS011;55157;51.036;17.058;2023-07-02T11:04:58;2.92;;;1.40;;
68310;SDS011;55157;51.036;17.058;2023-07-02T11:07:23;2.33;;;1.38;;
68310;SDS011;55157;51.036;17.058;2023-07-02T11:09:49;1.95;;;1.20;;
68310;SDS011;55157;51.036;17.058;2023-07-02T11:12:14;2.17;;;1.20;;
68310;SDS011;55157;51.036;17.058;2023-07-02T11:14:40;1.42;;;1.10;;
68310;SDS011;55157;51.036;17.058;2023-07-02T11:17:07;4.18;;;1.50;;
68310;SDS011;55157;51.036;17.058;2023-07-02T11:19:32;6.55;;;2.88;;
68310;SDS011;55157;51.036;17.058;2023-07-02T11:21:58;1.80;;;1.02;;
68310;SDS011;55157;51.036;17.058;2023-07-02T11:24:26;5.43;;;1.40;;
68310;SDS011;55157;51.036;17.058;2023-07-02T11:26:52;2.20;;;1.10;;
68310;SDS011;55157;51.036;17.058;2023-07-02T11:29:18;1.73;;;1.17;;
68310;SDS011;55157;51.036;17.058;2023-07-02T11:31:43;1.42;;;1.00;;
68310;SDS011;55157;51.036;17.058;2023-07-02T11:34:13;2.25;;;1.05;;
68310;SDS011;55157;51.036;17.058;2023-07-02T11:36:38;1.60;;;0.93;;
68310;SDS011;55157;51.036;17.058;2023-07-02T11:39:04;2.83;;;1.10;;
68310;SDS011;55157;51.036;17.058;2023-07-02T11:41:35;1.58;;;1.13;;
68310;SDS011;55157;51.036;17.058;2023-07-02T11:44:01;1.75;;;1.25;;
68310;SDS011;55157;51.036;17.058;2023-07-02T11:46:26;2.77;;;1.20;;
68310;SDS011;55157;51.036;17.058;2023-07-02T11:48:51;1.63;;;1.03;;
68310;SDS011;55157;51.036;17.058;2023-07-02T11:51:18;1.90;;;1.17;;
68310;SDS011;55157;51.036;17.058;2023-07-02T11:53:43;2.88;;;1.27;;
68310;SDS011;55157;51.036;17.058;2023-07-02T11:56:08;2.23;;;1.27;;
68310;SDS011;55157;51.036;17.058;2023-07-02T11:58:34;1.73;;;1.20;;
68310;SDS011;55157;51.036;17.058;2023-07-02T12:00:59;2.75;;;1.23;;
68310;SDS011;55157;51.036;17.058;2023-07-02T12:03:24;1.90;;;1.00;;
68310;SDS011;55157;51.036;17.058;2023-07-02T12:05:49;4.75;;;1.20;;
68310;SDS011;55157;51.036;17.058;2023-07-02T12:08:16;2.53;;;1.20;;
68310;SDS011;55157;51.036;17.058;2023-07-02T12:10:41;1.45;;;1.10;;
68310;SDS011;55157;51.036;17.058;2023-07-02T12:13:07;2.03;;;0.93;;
68310;SDS011;55157;51.036;17.058;2023-07-02T12:15:32;1.88;;;1.00;;
68310;SDS011;55157;51.036;17.058;2023-07-02T12:17:57;3.43;;;1.10;;
68310;SDS011;55157;51.036;17.058;2023-07-02T12:20:22;4.30;;;0.93;;
68310;SDS011;55157;51.036;17.058;2023-07-02T12:22:48;8.27;;;1.17;;
68310;SDS011;55157;51.036;17.058;2023-07-02T12:25:14;3.20;;;1.10;;
68310;SDS011;55157;51.036;17.058;2023-07-02T12:27:40;2.40;;;1.05;;
68310;SDS011;55157;51.036;17.058;2023-07-02T12:30:05;6.30;;;1.60;;
68310;SDS011;55157;51.036;17.058;2023-07-02T12:32:31;6.63;;;1.40;;
68310;SDS011;55157;51.036;17.058;2023-07-02T12:34:56;1.55;;;1.02;;
68310;SDS011;55157;51.036;17.058;2023-07-02T12:37:21;5.70;;;1.07;;
68310;SDS011;55157;51.036;17.058;2023-07-02T12:39:47;5.80;;;1.15;;
68310;SDS011;55157;51.036;17.058;2023-07-02T12:42:13;2.13;;;1.13;;
68310;SDS011;55157;51.036;17.058;2023-07-02T12:44:39;7.75;;;1.42;;
68310;SDS011;55157;51.036;17.058;2023-07-02T12:47:04;2.75;;;1.20;;
68310;SDS011;55157;51.036;17.058;2023-07-02T12:49:30;2.08;;;0.98;;
68310;SDS011;55157;51.036;17.058;2023-07-02T12:51:55;5.35;;;1.08;;
68310;SDS011;55157;51.036;17.058;2023-07-02T12:54:20;9.20;;;1.80;;
68310;SDS011;55157;51.036;17.058;2023-07-02T12:56:45;2.43;;;1.03;;
68310;SDS011;55157;51.036;17.058;2023-07-02T17:07:36;14.30;;;3.25;;
68310;SDS011;55157;51.036;17.058;2023-07-02T17:10:01;5.18;;;2.28;;
68310;SDS011;55157;51.036;17.058;2023-07-02T17:12:27;3.17;;;2.08;;
68310;SDS011;55157;51.036;17.058;2023-07-02T17:14:52;2.78;;;1.98;;
68310;SDS011;55157;51.036;17.058;2023-07-02T17:17:18;6.45;;;2.25;;
68310;SDS011;55157;51.036;17.058;2023-07-02T17:19:44;2.90;;;1.95;;
68310;SDS011;55157;51.036;17.058;2023-07-02T17:22:14;7.07;;;2.03;;
68310;SDS011;55157;51.036;17.058;2023-07-02T17:24:42;10.57;;;4.53;;
68310;SDS011;55157;51.036;17.058;2023-07-02T17:27:08;6.72;;;3.33;;
68310;SDS011;55157;51.036;17.058;2023-07-02T17:29:33;3.90;;;2.17;;
68310;SDS011;55157;51.036;17.058;2023-07-02T17:31:59;5.40;;;3.83;;
68310;SDS011;55157;51.036;17.058;2023-07-02T17:34:25;4.05;;;2.65;;
68310;SDS011;55157;51.036;17.058;2023-07-02T17:36:51;6.55;;;5.07;;
68310;SDS011;55157;51.036;17.058;2023-07-02T17:39:17;2.90;;;1.80;;
68310;SDS011;55157;51.036;17.058;2023-07-02T17:41:45;3.25;;;1.70;;
68310;SDS011;55157;51.036;17.058;2023-07-02T17:44:11;3.13;;;1.58;;
68310;SDS011;55157;51.036;17.058;2023-07-02T17:46:38;6.68;;;3.85;;
68310;SDS011;55157;51.036;17.058;2023-07-02T17:49:04;8.45;;;2.60;;
68310;SDS011;55157;51.036;17.058;2023-07-02T17:51:30;7.07;;;1.50;;
68310;SDS011;55157;51.036;17.058;2023-07-02T17:53:55;9.32;;;1.65;;
68310;SDS011;55157;51.036;17.058;2023-07-02T17:56:21;2.72;;;1.52;;
68310;SDS011;55157;51.036;17.058;2023-07-02T17:58:48;3.58;;;1.40;;
68310;SDS011;55157;51.036;17.058;2023-07-02T18:01:13;6.18;;;1.60;;
68310;SDS011;55157;51.036;17.058;2023-07-02T18:03:38;5.20;;;2.15;;
68310;SDS011;55157;51.036;17.058;2023-07-02T18:06:03;6.65;;;1.83;;
68310;SDS011;55157;51.036;17.058;2023-07-02T18:08:29;9.75;;;1.73;;
68310;SDS011;55157;51.036;17.058;2023-07-02T18:10:54;18.25;;;2.92;;
68310;SDS011;55157;51.036;17.058;2023-07-02T18:13:19;5.63;;;2.10;;
68310;SDS011;55157;51.036;17.058;2023-07-02T18:15:46;9.40;;;2.00;;
68310;SDS011;55157;51.036;17.058;2023-07-02T18:18:12;6.78;;;1.70;;
68310;SDS011;55157;51.036;17.058;2023-07-02T18:20:37;3.70;;;1.92;;
68310;SDS011;55157;51.036;17.058;2023-07-02T18:23:03;4.53;;;1.80;;
68310;SDS011;55157;51.036;17.058;2023-07-02T18:25:28;4.03;;;1.90;;
68310;SDS011;55157;51.036;17.058;2023-07-02T18:28:03;4.43;;;3.00;;
68310;SDS011;55157;51.036;17.058;2023-07-02T18:30:29;2.33;;;2.00;;
68310;SDS011;55157;51.036;17.058;2023-07-02T18:32:55;7.13;;;2.10;;